Flight Track Log - Related Links

Times and Time Zones

All times are in EDT time to prevent confusion due to time zone crossing. See the SWA709 flight status page for this flight to view local times or setup timezone preferences in your user account.

Time Position Orientation Groundspeed Altitude Reporting Facility
EDT Latitude Longitude Course Direction KTS MPH feet Rate Location/Type
Mon 10:49:30 AM 36.0761 -115.1683 268° West 151 174 3,100  Level Los Angeles Center
Mon 10:50:25 AM 36.0744 -115.2300 268° West 196 226 4,600 1,546 Climbing Los Angeles Center
Mon 10:51:07 AM 36.0497 -115.2639 228° Southwest 229 264 5,600 1,558 Climbing Los Angeles Center
Mon 10:52:09 AM 35.9761 -115.2997 202° Southwest 271 312 7,300 2,552 Climbing Los Angeles Center
Mon 10:53:21 AM 35.8978 -115.3914 223° Southwest 291 335 11,300 2,710 Climbing Los Angeles Center
Mon 10:54:13 AM 35.8872 -115.4681 260° West 325 374 12,900 2,895 Climbing Los Angeles Center
Mon 10:55:15 AM 35.8900 -115.6081 271° West 362 417 16,800 3,561 Climbing Los Angeles Center
Mon 10:56:16 AM 35.9125 -115.7392 282° West 372 428 20,200 2,976 Climbing Los Angeles Center
Mon 10:57:18 AM 35.9803 -115.8422 309° West 388 447 22,900 2,371 Climbing Los Angeles Center
Mon 10:58:20 AM 36.0453 -115.9397 310° West 400 460 25,100 2,081 Climbing Los Angeles Center
Mon 10:59:22 AM 36.1167 -116.0508 309° West 411 473 27,200 2,419 Climbing Los Angeles Center
Mon 11:00:24 AM 36.2056 -116.1858 309° West 421 484 30,100 2,293 Climbing Los Angeles Center
Mon 11:01:25 AM 36.2647 -116.2781 309° West 417 480 31,900 927 Climbing Los Angeles Center
Mon 11:02:27 AM 36.3503 -116.4094 309° West 411 473 32,000 48 Climbing Los Angeles Center
Mon 11:03:29 AM 36.4208 -116.5194 309° West 409 471 32,000  Level Los Angeles Center
Mon 11:04:31 AM 36.4717 -116.6422 297° West 409 471 32,000  Level Los Angeles Center
Mon 11:05:33 AM 36.5025 -116.7792 286° West 414 476 32,000  Level Los Angeles Center
Mon 11:06:35 AM 36.5328 -116.9158 285° West 413 475 32,000  Level Los Angeles Center
Mon 11:07:37 AM 36.5606 -117.0508 284° West 408 470 32,000  Level Los Angeles Center
Mon 11:08:38 AM 36.5961 -117.2156 285° West 411 473 32,000  Level Los Angeles Center
Mon 11:09:40 AM 36.6247 -117.3531 285° West 412 474 32,000  Level Los Angeles Center
Mon 11:10:42 AM 36.6544 -117.4906 285° West 413 475 32,000  Level Los Angeles Center
Mon 11:11:44 AM 36.6825 -117.6281 284° West 412 474 32,000  Level Los Angeles Center
Mon 11:12:46 AM 36.7114 -117.7664 285° West 413 475 32,000  Level Los Angeles Center
Mon 11:13:48 AM 36.7400 -117.9033 285° West 412 474 32,000  Level Los Angeles Center
Mon 11:14:50 AM 36.7731 -118.0697 284° West 413 475 32,000  Level Los Angeles Center
Mon 11:15:52 AM 36.8036 -118.2183 284° West 414 476 32,000  Level Los Angeles Center
Mon 11:16:54 AM 36.8311 -118.3578 284° West 413 475 32,000  Level Los Angeles Center
Mon 11:17:56 AM 36.8592 -118.4978 284° West 413 475 32,000  Level Los Angeles Center
Mon 11:18:58 AM 36.8850 -118.6294 284° West 413 475 32,000 -229 Level Los Angeles Center
Mon 11:20:07 AM 36.9169 -118.7936 284° West 415 478 31,500 -646 Descending Oakland Center
Mon 11:21:08 AM 36.9461 -118.9350 285° West 416 479 30,600 -927 Descending Oakland Center
Mon 11:22:10 AM 36.9725 -119.0753 283° West 415 478 29,600 -927 Descending Oakland Center
Mon 11:23:11 AM 37.0000 -119.2164 284° West 420 483 28,700 -934 Descending Oakland Center
Mon 11:24:12 AM 37.0264 -119.3578 283° West 422 486 27,700 -1,082 Descending Oakland Center
Mon 11:25:13 AM 37.0581 -119.5244 283° West 415 478 26,500 -1,082 Descending Oakland Center
Mon 11:26:14 AM 37.0825 -119.6611 283° West 406 467 25,500 -976 Descending Oakland Center
Mon 11:27:16 AM 37.1083 -119.7986 283° West 407 468 24,500 -927 Descending Oakland Center
Mon 11:28:17 AM 37.1294 -119.9194 282° West 402 463 23,600 -1,033 Descending Oakland Center
Mon 11:29:18 AM 37.1578 -120.0775 283° West 382 440 22,400 -1,122 Descending Oakland Center
Mon 11:30:20 AM 37.1825 -120.2083 283° West 378 435 21,300 -1,024 Descending Oakland Center
Mon 11:31:21 AM 37.2067 -120.3364 283° West 368 423 20,300 -1,024 Descending Oakland Center
Mon 11:31:42 AM 37.2167 -120.3833 285° West 364 419 19,900 -1,037 Descending Northern Cal TRACON
Mon 11:32:42 AM 37.2000 -120.5167 261° West 438 504 18,900 -1,000 Descending Northern Cal TRACON
Mon 11:33:36 AM 37.1667 -120.6167 247° West 371 427 18,000 -939 Descending Northern Cal TRACON
Mon 11:34:37 AM 37.1500 -120.7500 261° West 366 421 17,100 -992 Descending Northern Cal TRACON
Mon 11:35:37 AM 37.1333 -120.8667 260° West 362 417 16,000 -1,053 Descending Northern Cal TRACON
Mon 11:36:31 AM 37.1167 -120.9833 260° West 354 407 15,100 -964 Descending Northern Cal TRACON
Mon 11:37:29 AM 37.1053 -121.0744 261° West 345 397 14,200 -1,311 Descending Oakland Center
Mon 11:38:30 AM 37.0925 -121.1808 261° West 318 366 12,500 -1,854 Descending Oakland Center
Mon 11:39:32 AM 37.0900 -121.2928 268° West 323 372 10,400 -1,561 Descending Oakland Center
Mon 11:40:33 AM 37.1128 -121.4161 283° West 299 344 9,300 -1,220 Descending Oakland Center
Mon 11:41:35 AM 37.1297 -121.5117 283° West 283 326 7,900 -1,415 Descending Oakland Center
Mon 11:42:36 AM 37.1464 -121.6056 283° West 276 318 6,400 -1,426 Descending Oakland Center
Mon 11:43:37 AM 37.1614 -121.6950 282° West 276 318 5,000 -1,122 Descending Oakland Center
Mon 11:44:39 AM 37.2006 -121.7556 309° West 251 289 4,100 -1,024 Descending Oakland Center
Mon 11:45:40 AM 37.2417 -121.8006 319° Northwest 215 247 2,900 -1,073 Descending Oakland Center
Mon 11:46:42 AM 37.2836 -121.8436 321° Northwest 203 234 1,900 -927 Descending Oakland Center
Mon 11:47:43 AM 37.3278 -121.8889 321° Northwest 184 212 1,000 8,902 Descending Oakland Center
Mon 11:48:44 AM 37.3567 -121.9208 319° Northwest 157 181 20,000 18,689 Climbing Oakland Center
Mon 11:50:00 AM 37.3500 -121.9167 North  Level FlightAware Approximate

Login

Don't have an account? Register now (free) for customized features, flight alerts, and more!